Time;durP1;ratioP1;P1;durP2;ratioP2;P2;SDS_P1;SDS_P2;PMS_P1;PMS_P2;Temp;Humidity;BMP_temperature;BMP_pressure;BME280_temperature;BME280_humidity;BME280_pressure;Samples;Min_cycle;Max_cycle;Signal;HPM_P1;HPM_P2
2023/07/17 00:00:55;;;;;;;5.27;4.33;;;;;;;;;;5024988;28;20445;-80
2023/07/17 00:03:22;;;;;;;7.13;4.43;;;;;;;;;;5026276;28;20456;-81
2023/07/17 00:05:48;;;;;;;5.70;3.93;;;;;;;;;;5014263;28;20468;-81
2023/07/17 00:08:14;;;;;;;6.33;4.03;;;;;;;;;;5025385;28;20468;-81
2023/07/17 00:10:41;;;;;;;6.90;4.70;;;;;;;;;;5031525;28;20473;-80
2023/07/17 00:13:08;;;;;;;10.93;5.40;;;;;;;;;;5027615;28;20437;-80
2023/07/17 00:15:34;;;;;;;8.10;4.90;;;;;;;;;;5026637;28;20480;-81
2023/07/17 00:18:02;;;;;;;6.27;4.50;;;;;;;;;;5030936;28;20438;-81
2023/07/17 00:20:28;;;;;;;6.33;4.27;;;;;;;;;;5033210;28;21041;-81
2023/07/17 00:22:55;;;;;;;7.20;4.40;;;;;;;;;;5033571;28;20971;-81
2023/07/17 00:25:21;;;;;;;8.93;4.50;;;;;;;;;;5028278;28;20480;-81
2023/07/17 00:27:48;;;;;;;7.97;4.90;;;;;;;;;;5028731;28;20859;-81
2023/07/17 00:30:14;;;;;;;6.87;4.70;;;;;;;;;;5031941;28;20472;-81
2023/07/17 00:32:40;;;;;;;7.17;4.70;;;;;;;;;;5031367;28;20463;-81
2023/07/17 00:35:09;;;;;;;7.60;4.73;;;;;;;;;;5024581;28;20479;-80
2023/07/17 00:37:35;;;;;;;10.63;4.60;;;;;;;;;;5032448;28;21009;-80
2023/07/17 00:40:04;;;;;;;8.60;4.90;;;;;;;;;;5035958;28;20446;-80
2023/07/17 00:42:30;;;;;;;6.67;4.27;;;;;;;;;;5035648;28;20451;-80
2023/07/17 00:44:58;;;;;;;10.83;4.27;;;;;;;;;;5026970;28;20475;-81
2023/07/17 00:47:24;;;;;;;6.90;4.67;;;;;;;;;;5027096;28;20484;-80
2023/07/17 00:49:51;;;;;;;7.13;3.70;;;;;;;;;;5036710;28;20472;-80
2023/07/17 00:52:19;;;;;;;10.30;4.83;;;;;;;;;;5037014;28;20445;-80
2023/07/17 00:54:46;;;;;;;5.70;4.50;;;;;;;;;;5036483;28;20471;-81
2023/07/17 00:57:15;;;;;;;7.60;4.20;;;;;;;;;;5036939;28;20416;-80
2023/07/17 00:59:41;;;;;;;6.87;4.77;;;;;;;;;;5034948;28;21001;-81
2023/07/17 01:02:08;;;;;;;8.17;5.10;;;;;;;;;;5032062;28;20836;-80
2023/07/17 01:04:35;;;;;;;7.87;5.00;;;;;;;;;;5033199;28;20981;-80
2023/07/17 01:07:01;;;;;;;8.43;4.43;;;;;;;;;;5035743;28;20476;-79
2023/07/17 01:09:30;;;;;;;9.00;4.50;;;;;;;;;;5034876;28;20972;-80
2023/07/17 01:11:56;;;;;;;8.00;4.50;;;;;;;;;;5033132;28;20464;-80
2023/07/17 01:14:22;;;;;;;5.77;3.93;;;;;;;;;;5027295;28;20476;-80
2023/07/17 01:16:49;;;;;;;7.30;3.83;;;;;;;;;;5033234;28;20452;-81
2023/07/17 01:19:16;;;;;;;8.50;4.97;;;;;;;;;;5051179;28;20507;-80
2023/07/17 01:21:46;;;;;;;10.10;4.97;;;;;;;;;;5033484;28;20461;-81
2023/07/17 01:24:14;;;;;;;9.30;5.10;;;;;;;;;;5029718;28;20472;-81
2023/07/17 01:26:41;;;;;;;6.37;4.20;;;;;;;;;;5032960;28;20499;-81
2023/07/17 01:29:07;;;;;;;8.93;5.70;;;;;;;;;;5031296;28;20531;-81
2023/07/17 01:31:34;;;;;;;6.47;4.00;;;;;;;;;;5026790;28;20427;-81
2023/07/17 01:34:00;;;;;;;5.63;5.00;;;;;;;;;;5035072;28;20471;-80
2023/07/17 01:36:27;;;;;;;7.63;5.13;;;;;;;;;;5036106;28;20452;-81
2023/07/17 01:38:55;;;;;;;9.17;4.80;;;;;;;;;;5032975;28;20523;-81
2023/07/17 01:41:24;;;;;;;9.87;4.57;;;;;;;;;;5034115;28;20446;-81
2023/07/17 01:43:51;;;;;;;7.47;5.23;;;;;;;;;;5035065;28;20972;-80
2023/07/17 01:46:18;;;;;;;5.73;4.47;;;;;;;;;;5032205;28;20434;-81
2023/07/17 01:48:44;;;;;;;7.80;4.50;;;;;;;;;;5022834;28;20470;-81
2023/07/17 01:51:10;;;;;;;9.67;4.47;;;;;;;;;;5030915;28;20460;-81
2023/07/17 01:53:37;;;;;;;8.50;4.70;;;;;;;;;;5033255;28;20444;-81
2023/07/17 01:56:03;;;;;;;5.90;4.60;;;;;;;;;;5029838;28;20453;-81
2023/07/17 01:58:31;;;;;;;7.30;5.40;;;;;;;;;;5035625;28;20472;-81
2023/07/17 02:00:57;;;;;;;7.10;5.33;;;;;;;;;;5017563;28;20429;-81
2023/07/17 02:03:24;;;;;;;9.07;5.90;;;;;;;;;;5029105;28;20434;-80
2023/07/17 02:05:50;;;;;;;8.97;4.63;;;;;;;;;;5030686;28;20485;-80
2023/07/17 02:08:17;;;;;;;5.67;5.07;;;;;;;;;;5023773;28;20488;-81
2023/07/17 02:10:44;;;;;;;6.43;4.50;;;;;;;;;;5035000;28;20448;-80
2023/07/17 02:13:10;;;;;;;6.87;4.77;;;;;;;;;;5025401;28;20451;-80
2023/07/17 02:15:38;;;;;;;6.03;4.40;;;;;;;;;;5034374;28;20454;-81
2023/07/17 02:18:04;;;;;;;7.77;4.53;;;;;;;;;;5030645;28;20464;-81
2023/07/17 02:20:31;;;;;;;7.17;4.70;;;;;;;;;;5045283;28;20457;-80
2023/07/17 02:22:57;;;;;;;11.97;5.50;;;;;;;;;;5052069;28;20440;-80
2023/07/17 02:25:24;;;;;;;7.70;4.90;;;;;;;;;;5039295;28;20472;-81
2023/07/17 02:27:50;;;;;;;9.13;4.50;;;;;;;;;;5049279;28;20502;-81
2023/07/17 02:30:16;;;;;;;6.63;5.30;;;;;;;;;;5049643;28;20494;-81
2023/07/17 02:32:44;;;;;;;6.80;5.10;;;;;;;;;;5054105;28;20444;-80
2023/07/17 02:35:10;;;;;;;8.10;5.30;;;;;;;;;;5051425;28;20475;-80
2023/07/17 02:37:40;;;;;;;7.67;5.20;;;;;;;;;;5042851;28;20830;-81
2023/07/17 02:40:12;;;;;;;9.20;5.10;;;;;;;;;;5053992;28;20478;-80
2023/07/17 02:42:38;;;;;;;10.07;5.10;;;;;;;;;;5043157;28;20482;-80
2023/07/17 02:45:06;;;;;;;9.83;5.60;;;;;;;;;;5046959;28;20468;-81
2023/07/17 02:47:32;;;;;;;6.30;5.10;;;;;;;;;;5054912;28;20491;-80
2023/07/17 02:50:00;;;;;;;12.23;5.43;;;;;;;;;;5051118;28;20471;-81
2023/07/17 02:52:28;;;;;;;7.53;4.87;;;;;;;;;;5047930;28;20426;-82
2023/07/17 02:54:55;;;;;;;6.03;4.00;;;;;;;;;;5053615;28;20496;-81
2023/07/17 02:57:21;;;;;;;8.10;4.47;;;;;;;;;;5055234;28;20475;-79
2023/07/17 02:59:48;;;;;;;6.93;5.60;;;;;;;;;;5054666;28;20468;-79
2023/07/17 03:02:14;;;;;;;6.50;5.47;;;;;;;;;;5052828;28;20513;-80
2023/07/17 03:04:40;;;;;;;7.27;4.60;;;;;;;;;;5052695;28;20468;-80
2023/07/17 03:07:08;;;;;;;8.47;4.70;;;;;;;;;;5054284;28;20469;-82
2023/07/17 03:09:35;;;;;;;9.13;4.93;;;;;;;;;;5047818;28;20475;-80
2023/07/17 03:12:01;;;;;;;6.73;4.77;;;;;;;;;;5047846;28;20449;-81
2023/07/17 03:14:28;;;;;;;6.67;5.40;;;;;;;;;;5049891;28;20456;-80
2023/07/17 03:16:54;;;;;;;7.07;4.73;;;;;;;;;;5054980;28;20460;-80
2023/07/17 03:19:20;;;;;;;7.93;5.07;;;;;;;;;;5053313;28;20869;-82
2023/07/17 03:21:46;;;;;;;11.90;4.57;;;;;;;;;;5042242;28;20907;-81
2023/07/17 03:24:14;;;;;;;9.97;5.50;;;;;;;;;;5048899;28;20484;-81
2023/07/17 03:26:41;;;;;;;8.10;5.00;;;;;;;;;;5053548;28;20450;-82
2023/07/17 03:29:09;;;;;;;6.83;5.33;;;;;;;;;;5049651;28;20532;-81
2023/07/17 03:31:35;;;;;;;10.03;5.97;;;;;;;;;;5053599;28;20447;-81
2023/07/17 03:34:02;;;;;;;9.20;5.57;;;;;;;;;;5044963;28;20837;-81
2023/07/17 03:36:28;;;;;;;11.50;5.47;;;;;;;;;;5053106;28;20451;-80
2023/07/17 03:38:54;;;;;;;6.40;4.73;;;;;;;;;;5052646;28;20474;-82
2023/07/17 03:41:22;;;;;;;8.63;5.40;;;;;;;;;;5051036;28;20451;-81
2023/07/17 03:43:49;;;;;;;9.10;5.83;;;;;;;;;;5048788;28;20452;-82
2023/07/17 03:46:15;;;;;;;10.50;5.03;;;;;;;;;;5053202;28;20434;-82
2023/07/17 03:48:42;;;;;;;9.00;5.10;;;;;;;;;;5048192;28;20546;-82
2023/07/17 03:51:08;;;;;;;13.33;5.83;;;;;;;;;;5052602;28;20431;-82
2023/07/17 03:53:34;;;;;;;11.30;5.13;;;;;;;;;;5043386;28;20814;-83
2023/07/17 03:56:00;;;;;;;8.10;5.20;;;;;;;;;;5050866;28;20410;-81
2023/07/17 03:58:28;;;;;;;8.60;5.10;;;;;;;;;;5052917;28;20561;-82
2023/07/17 04:00:54;;;;;;;13.70;5.53;;;;;;;;;;5032407;28;20984;-82
2023/07/17 04:03:21;;;;;;;8.00;5.93;;;;;;;;;;5023037;28;20430;-81
2023/07/17 04:05:47;;;;;;;10.50;5.63;;;;;;;;;;5051783;28;20831;-82
2023/07/17 04:08:14;;;;;;;8.00;4.57;;;;;;;;;;5048935;28;20539;-82
2023/07/17 04:10:40;;;;;;;6.70;5.20;;;;;;;;;;5051611;28;20472;-82
2023/07/17 04:13:06;;;;;;;8.10;5.00;;;;;;;;;;5056510;28;20463;-82
2023/07/17 04:15:35;;;;;;;12.97;4.93;;;;;;;;;;5033078;28;20484;-82
2023/07/17 04:18:02;;;;;;;8.93;5.43;;;;;;;;;;5032860;28;20458;-81
2023/07/17 04:20:28;;;;;;;6.70;4.70;;;;;;;;;;5030025;28;20504;-82
2023/07/17 04:22:55;;;;;;;14.87;5.47;;;;;;;;;;5029862;28;20456;-79
2023/07/17 04:25:21;;;;;;;9.30;5.23;;;;;;;;;;5036293;28;20476;-80
2023/07/17 04:27:47;;;;;;;8.47;6.00;;;;;;;;;;5030259;28;20491;-82
2023/07/17 04:30:14;;;;;;;11.40;4.70;;;;;;;;;;5033706;28;20474;-82
2023/07/17 04:32:42;;;;;;;6.43;5.80;;;;;;;;;;5024742;28;20510;-80
2023/07/17 04:35:09;;;;;;;12.70;5.27;;;;;;;;;;5034839;28;20476;-79
2023/07/17 04:37:35;;;;;;;8.53;4.90;;;;;;;;;;5032278;28;20859;-80
2023/07/17 04:40:02;;;;;;;7.80;5.13;;;;;;;;;;5034417;28;20501;-81
2023/07/17 04:42:29;;;;;;;10.70;5.60;;;;;;;;;;5036030;28;20460;-80
2023/07/17 04:44:55;;;;;;;11.27;5.60;;;;;;;;;;5033973;28;20468;-80
2023/07/17 04:47:23;;;;;;;8.77;4.83;;;;;;;;;;5029161;28;20515;-79
2023/07/17 04:49:53;;;;;;;9.23;5.60;;;;;;;;;;5040654;28;21234;-80
2023/07/17 04:52:19;;;;;;;9.23;5.47;;;;;;;;;;5052640;28;20434;-80
2023/07/17 04:54:45;;;;;;;13.00;6.70;;;;;;;;;;5042357;28;20487;-81
2023/07/17 04:57:11;;;;;;;7.47;5.07;;;;;;;;;;5033537;28;20490;-80
2023/07/17 04:59:38;;;;;;;9.27;5.50;;;;;;;;;;5033226;28;20458;-80
2023/07/17 05:02:04;;;;;;;8.77;5.17;;;;;;;;;;5026448;28;20494;-81
2023/07/17 05:04:31;;;;;;;6.67;5.07;;;;;;;;;;5027724;28;20981;-80
2023/07/17 05:06:58;;;;;;;8.97;4.93;;;;;;;;;;5036150;28;20456;-80
2023/07/17 05:09:25;;;;;;;6.63;4.80;;;;;;;;;;5026129;28;20483;-81
2023/07/17 05:11:51;;;;;;;7.00;4.20;;;;;;;;;;5036858;28;20468;-83
2023/07/17 05:14:18;;;;;;;7.93;4.90;;;;;;;;;;5033990;28;20447;-82
2023/07/17 05:16:44;;;;;;;7.50;4.97;;;;;;;;;;5035081;28;20434;-81
2023/07/17 05:19:11;;;;;;;6.37;4.63;;;;;;;;;;5033136;28;20469;-82
2023/07/17 05:21:37;;;;;;;11.20;4.87;;;;;;;;;;5033452;28;20456;-82
2023/07/17 05:24:05;;;;;;;9.90;5.63;;;;;;;;;;5033870;28;20442;-80
2023/07/17 05:26:32;;;;;;;10.03;5.10;;;;;;;;;;5050071;28;20443;-82
2023/07/17 05:28:58;;;;;;;7.43;5.00;;;;;;;;;;5052249;28;20518;-82
2023/07/17 05:31:25;;;;;;;8.07;4.77;;;;;;;;;;5050073;28;20801;-81
2023/07/17 05:33:52;;;;;;;6.97;4.70;;;;;;;;;;5047914;28;20457;-81
2023/07/17 05:36:18;;;;;;;11.60;5.03;;;;;;;;;;5028540;28;20551;-82
2023/07/17 05:38:44;;;;;;;9.70;5.10;;;;;;;;;;5034997;28;20966;-81
2023/07/17 05:41:12;;;;;;;10.30;5.00;;;;;;;;;;5023513;28;20830;-82
2023/07/17 05:43:39;;;;;;;12.53;5.80;;;;;;;;;;5035194;28;20431;-82
2023/07/17 05:46:05;;;;;;;11.33;4.90;;;;;;;;;;5032836;28;20427;-82
2023/07/17 05:48:31;;;;;;;7.23;4.50;;;;;;;;;;5034022;28;20459;-83
2023/07/17 05:50:58;;;;;;;8.37;4.50;;;;;;;;;;5041893;28;20467;-80
2023/07/17 05:53:24;;;;;;;5.63;4.40;;;;;;;;;;5051968;28;20448;-81
2023/07/17 05:55:52;;;;;;;6.57;4.77;;;;;;;;;;5049597;28;20821;-82
2023/07/17 05:58:19;;;;;;;8.03;4.13;;;;;;;;;;5037384;28;20522;-82
2023/07/17 06:00:47;;;;;;;7.10;4.23;;;;;;;;;;5050333;28;20480;-81
2023/07/17 06:03:15;;;;;;;5.80;3.80;;;;;;;;;;5044056;28;20424;-82
2023/07/17 06:05:41;;;;;;;7.87;4.87;;;;;;;;;;5049290;28;20438;-83
2023/07/17 06:08:08;;;;;;;8.13;4.50;;;;;;;;;;5050050;28;20878;-80
2023/07/17 06:10:35;;;;;;;11.30;4.30;;;;;;;;;;5052769;28;20467;-81
2023/07/17 06:13:01;;;;;;;8.57;4.43;;;;;;;;;;5039742;28;20456;-82
2023/07/17 06:15:29;;;;;;;11.07;4.60;;;;;;;;;;5025823;28;20472;-81
2023/07/17 06:17:56;;;;;;;8.77;4.10;;;;;;;;;;5028760;28;20488;-82
2023/07/17 06:20:22;;;;;;;6.47;4.53;;;;;;;;;;5016559;28;20473;-82
2023/07/17 06:22:48;;;;;;;10.60;4.50;;;;;;;;;;5030709;28;20467;-82
2023/07/17 06:25:15;;;;;;;9.30;4.17;;;;;;;;;;5032915;28;20469;-81
2023/07/17 06:27:41;;;;;;;8.83;3.90;;;;;;;;;;5032181;28;20472;-81
2023/07/17 06:30:08;;;;;;;8.77;5.20;;;;;;;;;;5015639;28;20477;-82
2023/07/17 06:32:36;;;;;;;7.33;4.07;;;;;;;;;;5031654;28;20449;-82
2023/07/17 06:35:05;;;;;;;9.17;4.47;;;;;;;;;;5034034;28;20473;-81
2023/07/17 06:37:31;;;;;;;10.50;4.70;;;;;;;;;;5031630;28;21041;-82
2023/07/17 06:39:58;;;;;;;8.23;4.37;;;;;;;;;;5027412;28;20480;-82
2023/07/17 06:42:24;;;;;;;10.63;4.80;;;;;;;;;;5034062;28;20922;-82
2023/07/17 06:44:50;;;;;;;12.70;4.57;;;;;;;;;;5030538;28;20477;-81
2023/07/17 06:47:17;;;;;;;13.73;4.60;;;;;;;;;;5028056;28;20448;-81
2023/07/17 06:49:44;;;;;;;7.67;4.80;;;;;;;;;;5033554;28;20472;-81
2023/07/17 06:52:11;;;;;;;9.50;4.03;;;;;;;;;;5041073;28;20448;-81
2023/07/17 06:54:37;;;;;;;8.03;4.23;;;;;;;;;;5039345;28;20476;-80
2023/07/17 06:57:04;;;;;;;10.63;4.20;;;;;;;;;;5053829;28;20448;-81
2023/07/17 06:59:31;;;;;;;5.73;4.17;;;;;;;;;;5052088;28;21005;-81
2023/07/17 07:01:57;;;;;;;10.70;4.00;;;;;;;;;;5042951;28;20455;-81
2023/07/17 07:04:24;;;;;;;7.03;4.40;;;;;;;;;;5040900;28;20472;-80
2023/07/17 07:06:52;;;;;;;7.77;3.13;;;;;;;;;;5033562;28;20453;-81
2023/07/17 07:09:18;;;;;;;6.10;4.10;;;;;;;;;;5031214;28;20472;-81
2023/07/17 07:11:44;;;;;;;8.13;4.40;;;;;;;;;;5023456;28;20446;-80
2023/07/17 07:14:11;;;;;;;7.03;4.40;;;;;;;;;;5027912;28;20439;-81
2023/07/17 07:16:37;;;;;;;14.03;3.77;;;;;;;;;;5023119;28;20460;-81
2023/07/17 07:19:04;;;;;;;6.63;3.93;;;;;;;;;;5027148;28;20469;-81
2023/07/17 07:21:30;;;;;;;5.97;3.57;;;;;;;;;;5023964;28;20450;-80
2023/07/17 07:23:58;;;;;;;7.90;3.70;;;;;;;;;;5027412;28;20465;-81
2023/07/17 07:26:24;;;;;;;7.63;3.53;;;;;;;;;;5032467;28;20449;-81
2023/07/17 07:28:51;;;;;;;7.23;4.03;;;;;;;;;;5032567;28;20951;-81
2023/07/17 07:31:17;;;;;;;4.27;3.30;;;;;;;;;;5033727;28;20451;-81
2023/07/17 07:33:43;;;;;;;8.60;4.30;;;;;;;;;;5026709;28;20936;-81
2023/07/17 07:36:10;;;;;;;7.57;4.17;;;;;;;;;;5019806;28;20459;-81
2023/07/17 07:38:36;;;;;;;11.37;4.17;;;;;;;;;;5032677;28;20467;-81
2023/07/17 07:41:04;;;;;;;6.53;4.50;;;;;;;;;;5028718;28;20452;-81
2023/07/17 07:43:32;;;;;;;11.63;4.00;;;;;;;;;;5032861;28;20943;-80
2023/07/17 07:45:58;;;;;;;4.90;3.40;;;;;;;;;;5027092;28;20456;-81
2023/07/17 07:48:24;;;;;;;9.80;3.77;;;;;;;;;;5024998;28;20510;-81
2023/07/17 07:50:51;;;;;;;9.07;4.20;;;;;;;;;;5021333;28;20469;-81
2023/07/17 07:53:17;;;;;;;12.30;5.00;;;;;;;;;;5030474;28;20452;-81
2023/07/17 07:55:43;;;;;;;10.27;4.57;;;;;;;;;;5025708;28;20477;-81
2023/07/17 07:58:11;;;;;;;7.57;3.90;;;;;;;;;;5032688;28;20576;-81
2023/07/17 08:00:38;;;;;;;7.87;4.20;;;;;;;;;;5032932;28;21002;-82
2023/07/17 08:03:05;;;;;;;6.17;3.90;;;;;;;;;;5024126;28;20467;-81
2023/07/17 08:05:31;;;;;;;9.03;4.23;;;;;;;;;;5025087;28;20480;-82
2023/07/17 08:07:57;;;;;;;10.13;4.87;;;;;;;;;;5022946;28;20469;-81
2023/07/17 08:10:24;;;;;;;10.90;5.73;;;;;;;;;;5026082;28;20473;-81
2023/07/17 08:12:50;;;;;;;6.40;4.40;;;;;;;;;;5031946;28;20826;-81
2023/07/17 08:15:18;;;;;;;6.03;3.60;;;;;;;;;;5027946;28;20472;-81
2023/07/17 08:17:44;;;;;;;10.23;4.60;;;;;;;;;;5030445;28;20970;-81
2023/07/17 08:20:11;;;;;;;8.87;4.70;;;;;;;;;;5028096;28;20468;-81
2023/07/17 08:22:37;;;;;;;11.30;4.90;;;;;;;;;;5025356;28;20454;-80
2023/07/17 08:25:03;;;;;;;9.23;4.20;;;;;;;;;;5019767;28;20469;-82
2023/07/17 08:27:30;;;;;;;11.70;4.90;;;;;;;;;;5031597;28;20985;-80
2023/07/17 08:29:56;;;;;;;12.40;3.97;;;;;;;;;;5031150;28;20862;-79
2023/07/17 08:32:24;;;;;;;11.13;4.43;;;;;;;;;;5032224;28;20804;-79
2023/07/17 08:34:50;;;;;;;10.27;4.17;;;;;;;;;;5023747;28;20481;-80
2023/07/17 08:37:16;;;;;;;7.23;4.43;;;;;;;;;;5032674;28;20457;-80
2023/07/17 08:39:43;;;;;;;12.13;5.20;;;;;;;;;;5027451;28;20480;-80
2023/07/17 08:42:11;;;;;;;10.33;4.63;;;;;;;;;;5032756;28;20452;-81
2023/07/17 08:44:38;;;;;;;8.30;4.33;;;;;;;;;;5019069;28;20468;-79
2023/07/17 08:47:07;;;;;;;9.93;4.73;;;;;;;;;;5033225;28;20448;-79
2023/07/17 08:49:36;;;;;;;10.70;4.73;;;;;;;;;;5027790;28;20473;-80
2023/07/17 08:52:03;;;;;;;13.00;5.00;;;;;;;;;;5031770;28;20449;-80
2023/07/17 08:54:29;;;;;;;8.73;4.50;;;;;;;;;;5027330;28;20849;-80
2023/07/17 08:56:56;;;;;;;10.63;4.50;;;;;;;;;;5036217;28;20456;-80
2023/07/17 08:59:23;;;;;;;8.20;4.70;;;;;;;;;;5033721;28;20479;-80
2023/07/17 09:01:49;;;;;;;17.60;5.50;;;;;;;;;;5030678;28;20444;-79
2023/07/17 09:04:16;;;;;;;11.60;4.50;;;;;;;;;;5034973;28;20472;-80
2023/07/17 09:06:44;;;;;;;18.20;5.50;;;;;;;;;;5036469;28;20464;-79
2023/07/17 09:09:10;;;;;;;16.10;5.57;;;;;;;;;;5029427;28;20482;-79
2023/07/17 09:11:37;;;;;;;7.80;4.17;;;;;;;;;;5033704;28;20962;-79
2023/07/17 09:14:04;;;;;;;9.10;4.77;;;;;;;;;;5032801;28;20466;-79
2023/07/17 09:16:30;;;;;;;9.97;4.90;;;;;;;;;;5031256;28;20445;-80
2023/07/17 09:18:56;;;;;;;6.97;4.47;;;;;;;;;;5031268;28;20473;-78
2023/07/17 09:21:24;;;;;;;7.30;4.70;;;;;;;;;;5036500;28;20445;-80
2023/07/17 09:23:53;;;;;;;13.73;4.97;;;;;;;;;;5024218;28;20471;-79
2023/07/17 09:26:20;;;;;;;15.40;5.20;;;;;;;;;;5036066;28;20444;-80
2023/07/17 09:28:48;;;;;;;8.73;5.10;;;;;;;;;;5034819;28;20970;-80
2023/07/17 09:31:15;;;;;;;8.30;4.53;;;;;;;;;;5035450;28;20487;-82
2023/07/17 09:33:41;;;;;;;7.53;4.60;;;;;;;;;;5035394;28;20449;-80
2023/07/17 09:36:09;;;;;;;11.17;5.23;;;;;;;;;;5027021;28;20457;-79
2023/07/17 09:38:35;;;;;;;10.90;5.43;;;;;;;;;;5041186;28;20490;-80
2023/07/17 09:41:17;;;;;;;6.10;4.70;;;;;;;;;;5032130;28;20438;-80
2023/07/17 09:43:43;;;;;;;9.60;4.40;;;;;;;;;;5032179;28;20448;-79
2023/07/17 09:46:09;;;;;;;6.50;4.13;;;;;;;;;;5030718;28;20448;-80
2023/07/17 09:48:36;;;;;;;7.33;5.07;;;;;;;;;;5029939;28;20473;-82
2023/07/17 09:51:03;;;;;;;8.43;4.30;;;;;;;;;;5020573;28;20976;-81
2023/07/17 09:53:30;;;;;;;8.73;4.90;;;;;;;;;;5031254;28;20446;-82
2023/07/17 09:55:57;;;;;;;8.63;5.07;;;;;;;;;;5028211;28;20449;-81
2023/07/17 09:58:25;;;;;;;12.90;4.20;;;;;;;;;;5031700;28;20465;-80
2023/07/17 10:00:54;;;;;;;6.83;4.47;;;;;;;;;;5024586;28;20469;-80
2023/07/17 10:03:22;;;;;;;7.20;5.03;;;;;;;;;;5028159;28;20449;-80
2023/07/17 10:05:50;;;;;;;9.57;4.30;;;;;;;;;;5028261;28;20469;-80
2023/07/17 10:08:18;;;;;;;8.40;3.70;;;;;;;;;;5031873;28;20476;-80
2023/07/17 10:10:44;;;;;;;15.77;5.30;;;;;;;;;;5029651;28;20480;-79
2023/07/17 10:13:11;;;;;;;8.40;4.70;;;;;;;;;;5032927;28;20453;-80
2023/07/17 10:15:39;;;;;;;16.03;5.87;;;;;;;;;;5029545;28;20481;-80
2023/07/17 10:18:08;;;;;;;6.83;4.50;;;;;;;;;;5035122;28;20483;-80
2023/07/17 10:20:34;;;;;;;10.07;4.57;;;;;;;;;;5034836;28;20986;-80
2023/07/17 10:23:00;;;;;;;8.53;3.90;;;;;;;;;;5034489;28;20452;-80
2023/07/17 10:25:27;;;;;;;9.00;4.17;;;;;;;;;;5038574;28;20465;-79
2023/07/17 10:27:57;;;;;;;7.73;4.20;;;;;;;;;;5045265;28;20472;-80
2023/07/17 10:30:24;;;;;;;7.73;4.60;;;;;;;;;;5051343;28;20525;-81
2023/07/17 10:33:09;;;;;;;11.00;5.10;;;;;;;;;;5050129;28;20443;-80
2023/07/17 10:35:49;;;;;;;6.83;4.60;;;;;;;;;;5045901;28;20475;-80
2023/07/17 10:38:16;;;;;;;11.33;4.80;;;;;;;;;;5044831;28;20467;-80
2023/07/17 10:40:43;;;;;;;10.00;4.27;;;;;;;;;;5047793;28;20467;-81
2023/07/17 10:43:14;;;;;;;9.23;4.60;;;;;;;;;;5048067;28;20961;-80
2023/07/17 10:45:41;;;;;;;8.50;4.43;;;;;;;;;;5045800;28;20472;-80
2023/07/17 10:48:08;;;;;;;10.43;4.47;;;;;;;;;;5053974;28;20460;-80
2023/07/17 10:50:34;;;;;;;11.43;4.63;;;;;;;;;;5043645;28;20483;-80
2023/07/17 10:53:02;;;;;;;6.60;4.03;;;;;;;;;;5055215;28;20459;-81
2023/07/17 10:55:28;;;;;;;11.60;4.07;;;;;;;;;;5052200;28;20566;-80
2023/07/17 10:57:56;;;;;;;7.80;4.30;;;;;;;;;;5051266;28;20467;-80
2023/07/17 11:00:22;;;;;;;7.80;4.13;;;;;;;;;;5044602;28;20479;-81
2023/07/17 11:02:49;;;;;;;5.30;2.90;;;;;;;;;;5045677;28;20527;-81
2023/07/17 11:05:17;;;;;;;6.40;3.00;;;;;;;;;;5046004;28;20474;-81
2023/07/17 11:07:43;;;;;;;5.03;2.87;;;;;;;;;;5048452;28;20471;-80
2023/07/17 11:10:11;;;;;;;3.63;2.33;;;;;;;;;;5045745;28;21323;-81
2023/07/17 11:12:38;;;;;;;4.67;2.43;;;;;;;;;;5048223;28;20456;-81
2023/07/17 11:15:05;;;;;;;4.43;2.63;;;;;;;;;;5045536;28;21001;-81
2023/07/17 11:17:32;;;;;;;9.10;2.83;;;;;;;;;;5048267;28;20851;-81
2023/07/17 11:20:03;;;;;;;14.77;3.70;;;;;;;;;;5039399;28;20468;-79
2023/07/17 11:22:31;;;;;;;8.27;4.27;;;;;;;;;;5047709;28;20443;-80
2023/07/17 11:24:58;;;;;;;6.83;3.00;;;;;;;;;;5046587;28;20556;-80
2023/07/17 11:27:25;;;;;;;6.30;3.67;;;;;;;;;;5027407;28;20586;-80
2023/07/17 11:29:53;;;;;;;3.83;3.17;;;;;;;;;;5048650;28;20484;-80
2023/07/17 11:32:20;;;;;;;4.80;2.80;;;;;;;;;;5057354;28;20502;-79
2023/07/17 11:34:47;;;;;;;5.40;3.20;;;;;;;;;;5048304;28;20507;-80
2023/07/17 11:37:28;;;;;;;6.83;4.10;;;;;;;;;;5048083;28;20460;-80
2023/07/17 11:40:02;;;;;;;7.20;3.43;;;;;;;;;;5055045;28;20464;-80
2023/07/17 11:42:29;;;;;;;5.67;3.00;;;;;;;;;;5058420;28;20439;-82
2023/07/17 11:44:59;;;;;;;8.77;3.67;;;;;;;;;;5051829;28;20848;-80
2023/07/17 11:47:26;;;;;;;4.73;2.97;;;;;;;;;;5050386;28;20521;-82
2023/07/17 11:49:53;;;;;;;8.93;3.80;;;;;;;;;;5046072;28;20478;-81
2023/07/17 11:52:20;;;;;;;5.80;2.80;;;;;;;;;;5036822;28;20440;-81
2023/07/17 11:54:46;;;;;;;6.53;3.67;;;;;;;;;;5052352;28;20472;-81
2023/07/17 11:57:17;;;;;;;6.53;3.27;;;;;;;;;;5065985;28;20490;-80
2023/07/17 11:59:45;;;;;;;9.43;3.47;;;;;;;;;;5037220;28;20477;-81
2023/07/17 12:02:13;;;;;;;5.20;3.17;;;;;;;;;;5039227;28;20448;-80
2023/07/17 12:04:40;;;;;;;6.40;4.60;;;;;;;;;;5052298;28;20459;-81
2023/07/17 12:07:06;;;;;;;7.80;3.60;;;;;;;;;;5054019;28;20480;-80
2023/07/17 12:09:33;;;;;;;6.97;3.43;;;;;;;;;;5052384;28;20479;-80
2023/07/17 12:11:59;;;;;;;5.47;3.50;;;;;;;;;;5051425;28;20480;-80
2023/07/17 12:14:28;;;;;;;5.07;4.13;;;;;;;;;;5044619;28;20558;-80
2023/07/17 12:16:55;;;;;;;5.87;3.33;;;;;;;;;;5052572;28;20451;-80
2023/07/17 12:19:21;;;;;;;5.27;3.60;;;;;;;;;;5054254;28;20475;-81
2023/07/17 12:21:48;;;;;;;10.03;3.80;;;;;;;;;;5049218;28;20445;-83
2023/07/17 12:24:15;;;;;;;4.97;3.80;;;;;;;;;;5050218;28;20543;-81
2023/07/17 12:26:43;;;;;;;5.63;3.37;;;;;;;;;;5050076;28;20454;-81
2023/07/17 12:29:09;;;;;;;6.33;3.27;;;;;;;;;;5057912;28;20487;-79
2023/07/17 12:31:37;;;;;;;4.47;3.10;;;;;;;;;;5055685;28;20530;-81
2023/07/17 12:34:04;;;;;;;5.37;2.50;;;;;;;;;;5051478;28;20856;-80
2023/07/17 12:36:30;;;;;;;4.70;2.20;;;;;;;;;;5055612;28;20459;-80
2023/07/17 12:39:10;;;;;;;4.50;2.37;;;;;;;;;;5048616;28;20464;-81
2023/07/17 12:41:37;;;;;;;4.33;2.20;;;;;;;;;;5049262;28;20797;-80
2023/07/17 12:44:04;;;;;;;3.13;1.73;;;;;;;;;;5053093;28;20479;-82
2023/07/17 12:46:30;;;;;;;2.97;2.57;;;;;;;;;;5025409;28;20449;-79
2023/07/17 12:48:58;;;;;;;4.03;2.60;;;;;;;;;;5028617;28;20515;-78
2023/07/17 12:51:24;;;;;;;5.53;2.70;;;;;;;;;;5031948;28;20491;-80
2023/07/17 12:53:51;;;;;;;4.73;3.40;;;;;;;;;;5034836;28;20454;-82
2023/07/17 12:56:18;;;;;;;2.87;2.13;;;;;;;;;;5035808;28;20455;-81
2023/07/17 12:58:45;;;;;;;2.73;2.10;;;;;;;;;;5037001;28;20519;-80
2023/07/17 13:01:11;;;;;;;6.13;2.80;;;;;;;;;;5029227;28;20445;-78
2023/07/17 13:03:38;;;;;;;7.00;3.17;;;;;;;;;;5036696;28;20440;-79
2023/07/17 13:06:06;;;;;;;3.90;3.07;;;;;;;;;;5028091;28;20449;-78
2023/07/17 13:08:32;;;;;;;4.47;2.93;;;;;;;;;;5032998;28;20485;-78
2023/07/17 13:10:59;;;;;;;7.00;3.47;;;;;;;;;;5030936;28;20483;-82
2023/07/17 13:13:25;;;;;;;3.73;2.77;;;;;;;;;;5033735;28;20456;-80
2023/07/17 13:15:51;;;;;;;6.37;3.40;;;;;;;;;;5023589;28;20480;-83
2023/07/17 13:18:19;;;;;;;4.20;3.23;;;;;;;;;;5029767;28;20461;-80
2023/07/17 13:20:46;;;;;;;4.13;3.60;;;;;;;;;;5036468;28;20472;-78
2023/07/17 13:23:13;;;;;;;5.73;3.60;;;;;;;;;;5032313;28;20463;-83
2023/07/17 13:25:40;;;;;;;4.77;3.53;;;;;;;;;;5035012;28;20477;-82
2023/07/17 13:28:06;;;;;;;6.17;3.80;;;;;;;;;;5036680;28;20472;-81
2023/07/17 13:30:32;;;;;;;6.90;3.73;;;;;;;;;;5036024;28;20488;-81
2023/07/17 13:32:59;;;;;;;3.83;3.30;;;;;;;;;;5031633;28;20449;-81
2023/07/17 13:35:25;;;;;;;5.23;3.77;;;;;;;;;;5035054;28;20468;-81
2023/07/17 13:37:52;;;;;;;7.37;3.57;;;;;;;;;;5021053;28;20473;-82
2023/07/17 13:40:22;;;;;;;7.30;3.83;;;;;;;;;;5023585;28;20477;-82
2023/07/17 13:42:49;;;;;;;12.83;4.50;;;;;;;;;;5036852;28;20460;-80
2023/07/17 13:45:15;;;;;;;10.33;3.87;;;;;;;;;;5036957;28;20471;-79
2023/07/17 13:47:42;;;;;;;6.93;4.00;;;;;;;;;;5031035;28;20982;-80
2023/07/17 13:50:09;;;;;;;9.30;4.40;;;;;;;;;;5029058;28;20496;-81
2023/07/17 13:52:35;;;;;;;9.87;4.17;;;;;;;;;;5022246;28;20449;-82
2023/07/17 13:55:02;;;;;;;8.50;4.00;;;;;;;;;;5030527;28;20472;-80
2023/07/17 13:57:30;;;;;;;7.70;3.83;;;;;;;;;;5029121;28;20881;-81
2023/07/17 13:59:56;;;;;;;6.40;3.90;;;;;;;;;;5038547;28;20473;-80
2023/07/17 14:02:22;;;;;;;8.83;3.40;;;;;;;;;;5055922;28;20444;-80
2023/07/17 14:04:49;;;;;;;6.10;3.43;;;;;;;;;;5040242;28;20462;-80
2023/07/17 14:07:15;;;;;;;6.37;3.47;;;;;;;;;;5031224;28;20449;-80
2023/07/17 14:09:42;;;;;;;5.97;3.20;;;;;;;;;;5029311;28;20470;-80
2023/07/17 14:12:09;;;;;;;3.70;3.00;;;;;;;;;;5018273;28;20870;-80
2023/07/17 14:14:36;;;;;;;5.60;3.10;;;;;;;;;;5015780;28;20474;-80
2023/07/17 14:17:03;;;;;;;8.43;3.17;;;;;;;;;;5019650;28;20830;-80
2023/07/17 14:19:29;;;;;;;4.43;3.50;;;;;;;;;;5032407;28;20526;-79
2023/07/17 14:21:57;;;;;;;7.03;3.70;;;;;;;;;;5027223;28;20454;-80
2023/07/17 14:24:23;;;;;;;3.37;2.80;;;;;;;;;;5024514;28;20469;-80
2023/07/17 14:26:50;;;;;;;5.33;3.30;;;;;;;;;;5026182;28;20460;-81
2023/07/17 14:29:16;;;;;;;7.53;3.37;;;;;;;;;;5030750;28;20484;-81
2023/07/17 14:31:44;;;;;;;5.50;3.23;;;;;;;;;;5025572;28;20496;-81
2023/07/17 14:34:11;;;;;;;7.23;3.37;;;;;;;;;;5021205;28;21003;-81
2023/07/17 14:36:37;;;;;;;10.87;3.83;;;;;;;;;;5020221;28;20449;-82
2023/07/17 14:39:04;;;;;;;4.90;3.10;;;;;;;;;;5029170;28;20862;-82